sensor_id;sensor_type;location;lat;lon;timestamp;P1;durP1;ratioP1;P2;durP2;ratioP2
3278;SDS011;1651;50.940;6.888;2022-11-20T00:00:52;17.95;;;11.13;;
3278;SDS011;1651;50.940;6.888;2022-11-20T00:03:19;19.20;;;11.88;;
3278;SDS011;1651;50.940;6.888;2022-11-20T00:05:45;19.15;;;11.68;;
3278;SDS011;1651;50.940;6.888;2022-11-20T00:08:11;17.87;;;11.20;;
3278;SDS011;1651;50.940;6.888;2022-11-20T00:10:37;21.67;;;12.98;;
3278;SDS011;1651;50.940;6.888;2022-11-20T00:13:03;17.30;;;12.63;;
3278;SDS011;1651;50.940;6.888;2022-11-20T00:15:30;18.65;;;11.82;;
3278;SDS011;1651;50.940;6.888;2022-11-20T00:17:57;11.93;;;5.07;;
3278;SDS011;1651;50.940;6.888;2022-11-20T00:20:23;18.75;;;12.65;;
3278;SDS011;1651;50.940;6.888;2022-11-20T00:22:49;18.02;;;11.35;;
3278;SDS011;1651;50.940;6.888;2022-11-20T00:25:15;26.25;;;11.52;;
3278;SDS011;1651;50.940;6.888;2022-11-20T00:27:41;16.98;;;10.20;;
3278;SDS011;1651;50.940;6.888;2022-11-20T00:30:08;23.97;;;12.70;;
3278;SDS011;1651;50.940;6.888;2022-11-20T00:32:34;18.42;;;11.10;;
3278;SDS011;1651;50.940;6.888;2022-11-20T00:35:01;19.83;;;11.38;;
3278;SDS011;1651;50.940;6.888;2022-11-20T00:37:27;18.33;;;10.52;;
3278;SDS011;1651;50.940;6.888;2022-11-20T00:39:53;17.23;;;11.77;;
3278;SDS011;1651;50.940;6.888;2022-11-20T00:42:19;18.10;;;11.57;;
3278;SDS011;1651;50.940;6.888;2022-11-20T00:44:45;12.20;;;5.20;;
3278;SDS011;1651;50.940;6.888;2022-11-20T00:47:11;19.15;;;12.00;;
3278;SDS011;1651;50.940;6.888;2022-11-20T00:49:38;21.42;;;12.73;;
3278;SDS011;1651;50.940;6.888;2022-11-20T00:52:04;17.07;;;9.97;;
3278;SDS011;1651;50.940;6.888;2022-11-20T00:54:30;18.83;;;11.50;;
3278;SDS011;1651;50.940;6.888;2022-11-20T00:56:55;15.73;;;10.50;;
3278;SDS011;1651;50.940;6.888;2022-11-20T00:59:21;18.10;;;11.97;;
3278;SDS011;1651;50.940;6.888;2022-11-20T01:01:47;16.70;;;10.73;;
3278;SDS011;1651;50.940;6.888;2022-11-20T01:04:13;16.63;;;11.63;;
3278;SDS011;1651;50.940;6.888;2022-11-20T01:06:39;14.60;;;11.20;;
3278;SDS011;1651;50.940;6.888;2022-11-20T01:09:06;18.70;;;11.23;;
3278;SDS011;1651;50.940;6.888;2022-11-20T01:11:34;21.73;;;12.30;;
3278;SDS011;1651;50.940;6.888;2022-11-20T01:14:01;16.27;;;11.27;;
3278;SDS011;1651;50.940;6.888;2022-11-20T01:16:29;21.55;;;13.15;;
3278;SDS011;1651;50.940;6.888;2022-11-20T01:18:58;16.42;;;11.20;;
3278;SDS011;1651;50.940;6.888;2022-11-20T01:21:26;20.75;;;11.88;;
3278;SDS011;1651;50.940;6.888;2022-11-20T01:23:52;18.17;;;10.43;;
3278;SDS011;1651;50.940;6.888;2022-11-20T01:26:23;16.40;;;11.30;;
3278;SDS011;1651;50.940;6.888;2022-11-20T01:28:49;17.35;;;10.38;;
3278;SDS011;1651;50.940;6.888;2022-11-20T01:33:41;17.47;;;10.80;;
3278;SDS011;1651;50.940;6.888;2022-11-20T01:36:08;15.55;;;11.05;;
3278;SDS011;1651;50.940;6.888;2022-11-20T01:38:34;15.00;;;10.43;;
3278;SDS011;1651;50.940;6.888;2022-11-20T01:41:00;17.00;;;11.05;;
3278;SDS011;1651;50.940;6.888;2022-11-20T01:43:26;20.40;;;11.93;;
3278;SDS011;1651;50.940;6.888;2022-11-20T01:48:26;18.10;;;10.48;;
3278;SDS011;1651;50.940;6.888;2022-11-20T01:50:54;17.70;;;10.95;;
3278;SDS011;1651;50.940;6.888;2022-11-20T01:53:21;20.92;;;12.82;;
3278;SDS011;1651;50.940;6.888;2022-11-20T01:55:49;19.90;;;11.95;;
3278;SDS011;1651;50.940;6.888;2022-11-20T01:58:18;17.95;;;11.82;;
3278;SDS011;1651;50.940;6.888;2022-11-20T02:00:45;20.52;;;12.07;;
3278;SDS011;1651;50.940;6.888;2022-11-20T02:03:12;18.38;;;11.32;;
3278;SDS011;1651;50.940;6.888;2022-11-20T02:05:47;18.13;;;10.82;;
3278;SDS011;1651;50.940;6.888;2022-11-20T02:08:16;18.10;;;12.07;;
3278;SDS011;1651;50.940;6.888;2022-11-20T02:10:43;20.55;;;11.02;;
3278;SDS011;1651;50.940;6.888;2022-11-20T02:13:09;22.10;;;10.90;;
3278;SDS011;1651;50.940;6.888;2022-11-20T02:15:53;16.30;;;10.73;;
3278;SDS011;1651;50.940;6.888;2022-11-20T02:18:20;16.23;;;10.85;;
3278;SDS011;1651;50.940;6.888;2022-11-20T02:20:48;20.15;;;10.98;;
3278;SDS011;1651;50.940;6.888;2022-11-20T02:23:17;16.90;;;11.32;;
3278;SDS011;1651;50.940;6.888;2022-11-20T02:25:46;17.90;;;11.05;;
3278;SDS011;1651;50.940;6.888;2022-11-20T02:28:13;19.15;;;11.85;;
3278;SDS011;1651;50.940;6.888;2022-11-20T02:30:41;19.02;;;11.32;;
3278;SDS011;1651;50.940;6.888;2022-11-20T02:33:07;20.08;;;10.93;;
3278;SDS011;1651;50.940;6.888;2022-11-20T02:38:00;17.83;;;12.53;;
3278;SDS011;1651;50.940;6.888;2022-11-20T02:40:27;16.58;;;11.32;;
3278;SDS011;1651;50.940;6.888;2022-11-20T02:42:53;20.80;;;11.85;;
3278;SDS011;1651;50.940;6.888;2022-11-20T02:45:20;18.02;;;11.02;;
3278;SDS011;1651;50.940;6.888;2022-11-20T02:47:47;15.77;;;11.18;;
3278;SDS011;1651;50.940;6.888;2022-11-20T02:50:13;17.70;;;10.93;;
3278;SDS011;1651;50.940;6.888;2022-11-20T02:52:39;18.42;;;11.80;;
3278;SDS011;1651;50.940;6.888;2022-11-20T02:55:05;18.13;;;12.37;;
3278;SDS011;1651;50.940;6.888;2022-11-20T02:57:31;18.40;;;12.80;;
3278;SDS011;1651;50.940;6.888;2022-11-20T02:59:57;14.80;;;10.47;;
3278;SDS011;1651;50.940;6.888;2022-11-20T03:02:24;19.90;;;12.07;;
3278;SDS011;1651;50.940;6.888;2022-11-20T03:04:50;18.75;;;10.85;;
3278;SDS011;1651;50.940;6.888;2022-11-20T03:07:16;16.60;;;10.97;;
3278;SDS011;1651;50.940;6.888;2022-11-20T03:09:42;15.27;;;10.43;;
3278;SDS011;1651;50.940;6.888;2022-11-20T03:12:07;19.17;;;11.37;;
3278;SDS011;1651;50.940;6.888;2022-11-20T03:14:35;15.57;;;10.83;;
3278;SDS011;1651;50.940;6.888;2022-11-20T03:17:01;18.77;;;11.20;;
3278;SDS011;1651;50.940;6.888;2022-11-20T03:19:27;18.23;;;10.87;;
3278;SDS011;1651;50.940;6.888;2022-11-20T03:21:53;16.53;;;10.17;;
3278;SDS011;1651;50.940;6.888;2022-11-20T03:24:19;18.07;;;12.17;;
3278;SDS011;1651;50.940;6.888;2022-11-20T03:26:45;17.70;;;11.38;;
3278;SDS011;1651;50.940;6.888;2022-11-20T03:29:11;18.23;;;10.77;;
3278;SDS011;1651;50.940;6.888;2022-11-20T03:31:38;18.80;;;11.53;;
3278;SDS011;1651;50.940;6.888;2022-11-20T03:34:05;17.25;;;10.65;;
3278;SDS011;1651;50.940;6.888;2022-11-20T03:36:32;20.63;;;11.02;;
3278;SDS011;1651;50.940;6.888;2022-11-20T03:38:58;14.50;;;10.07;;
3278;SDS011;1651;50.940;6.888;2022-11-20T03:41:25;19.53;;;11.00;;
3278;SDS011;1651;50.940;6.888;2022-11-20T03:43:52;17.58;;;10.50;;
3278;SDS011;1651;50.940;6.888;2022-11-20T03:46:19;16.67;;;11.73;;
3278;SDS011;1651;50.940;6.888;2022-11-20T03:48:45;15.93;;;10.90;;
3278;SDS011;1651;50.940;6.888;2022-11-20T03:51:13;19.08;;;11.10;;
3278;SDS011;1651;50.940;6.888;2022-11-20T03:53:40;18.05;;;10.82;;
3278;SDS011;1651;50.940;6.888;2022-11-20T03:56:07;16.58;;;10.60;;
3278;SDS011;1651;50.940;6.888;2022-11-20T03:58:35;17.38;;;10.50;;
3278;SDS011;1651;50.940;6.888;2022-11-20T04:01:09;14.75;;;9.82;;
3278;SDS011;1651;50.940;6.888;2022-11-20T04:03:35;15.50;;;10.10;;
3278;SDS011;1651;50.940;6.888;2022-11-20T04:06:04;18.27;;;11.75;;
3278;SDS011;1651;50.940;6.888;2022-11-20T04:08:31;18.02;;;14.00;;
3278;SDS011;1651;50.940;6.888;2022-11-20T04:11:07;18.60;;;12.15;;
3278;SDS011;1651;50.940;6.888;2022-11-20T04:13:34;17.65;;;11.05;;
3278;SDS011;1651;50.940;6.888;2022-11-20T04:16:00;15.52;;;10.35;;
3278;SDS011;1651;50.940;6.888;2022-11-20T04:18:26;17.03;;;11.27;;
3278;SDS011;1651;50.940;6.888;2022-11-20T04:20:52;20.27;;;11.10;;
3278;SDS011;1651;50.940;6.888;2022-11-20T04:23:18;18.13;;;11.00;;
3278;SDS011;1651;50.940;6.888;2022-11-20T04:25:44;20.37;;;11.23;;
3278;SDS011;1651;50.940;6.888;2022-11-20T04:28:11;19.50;;;11.37;;
3278;SDS011;1651;50.940;6.888;2022-11-20T04:30:37;17.27;;;11.68;;
3278;SDS011;1651;50.940;6.888;2022-11-20T04:33:03;21.73;;;11.57;;
3278;SDS011;1651;50.940;6.888;2022-11-20T04:35:29;18.00;;;11.20;;
3278;SDS011;1651;50.940;6.888;2022-11-20T04:37:55;19.87;;;11.80;;
3278;SDS011;1651;50.940;6.888;2022-11-20T04:40:22;17.20;;;11.93;;
3278;SDS011;1651;50.940;6.888;2022-11-20T04:42:48;20.33;;;12.38;;
3278;SDS011;1651;50.940;6.888;2022-11-20T04:45:15;19.65;;;11.30;;
3278;SDS011;1651;50.940;6.888;2022-11-20T04:47:41;15.55;;;10.70;;
3278;SDS011;1651;50.940;6.888;2022-11-20T04:50:07;19.27;;;12.00;;
3278;SDS011;1651;50.940;6.888;2022-11-20T04:52:33;15.63;;;11.20;;
3278;SDS011;1651;50.940;6.888;2022-11-20T04:54:59;15.98;;;10.75;;
3278;SDS011;1651;50.940;6.888;2022-11-20T04:57:25;20.67;;;12.83;;
3278;SDS011;1651;50.940;6.888;2022-11-20T04:59:52;17.43;;;11.57;;
3278;SDS011;1651;50.940;6.888;2022-11-20T05:02:18;18.75;;;11.73;;
3278;SDS011;1651;50.940;6.888;2022-11-20T05:04:44;23.40;;;12.90;;
3278;SDS011;1651;50.940;6.888;2022-11-20T05:07:10;20.02;;;11.40;;
3278;SDS011;1651;50.940;6.888;2022-11-20T05:09:35;19.17;;;11.87;;
3278;SDS011;1651;50.940;6.888;2022-11-20T05:14:31;20.55;;;13.05;;
3278;SDS011;1651;50.940;6.888;2022-11-20T05:16:57;21.05;;;12.70;;
3278;SDS011;1651;50.940;6.888;2022-11-20T05:19:23;19.30;;;13.00;;
3278;SDS011;1651;50.940;6.888;2022-11-20T05:21:49;20.37;;;11.63;;
3278;SDS011;1651;50.940;6.888;2022-11-20T05:24:15;21.90;;;13.40;;
3278;SDS011;1651;50.940;6.888;2022-11-20T05:26:41;22.90;;;13.40;;
3278;SDS011;1651;50.940;6.888;2022-11-20T05:29:09;20.38;;;13.38;;
3278;SDS011;1651;50.940;6.888;2022-11-20T05:31:35;21.52;;;12.77;;
3278;SDS011;1651;50.940;6.888;2022-11-20T05:34:02;18.27;;;12.27;;
3278;SDS011;1651;50.940;6.888;2022-11-20T05:36:28;20.58;;;11.32;;
3278;SDS011;1651;50.940;6.888;2022-11-20T05:38:55;20.95;;;12.98;;
3278;SDS011;1651;50.940;6.888;2022-11-20T05:41:21;19.73;;;12.38;;
3278;SDS011;1651;50.940;6.888;2022-11-20T05:43:47;21.33;;;11.97;;
3278;SDS011;1651;50.940;6.888;2022-11-20T05:46:15;19.92;;;11.25;;
3278;SDS011;1651;50.940;6.888;2022-11-20T05:48:42;17.25;;;11.23;;
3278;SDS011;1651;50.940;6.888;2022-11-20T05:51:09;20.75;;;12.70;;
3278;SDS011;1651;50.940;6.888;2022-11-20T05:53:36;21.98;;;12.23;;
3278;SDS011;1651;50.940;6.888;2022-11-20T05:56:05;21.45;;;13.30;;
3278;SDS011;1651;50.940;6.888;2022-11-20T05:58:31;23.05;;;12.45;;
3278;SDS011;1651;50.940;6.888;2022-11-20T06:01:30;21.75;;;12.98;;
3278;SDS011;1651;50.940;6.888;2022-11-20T06:03:50;20.10;;;11.77;;
3278;SDS011;1651;50.940;6.888;2022-11-20T06:06:17;20.35;;;13.32;;
3278;SDS011;1651;50.940;6.888;2022-11-20T06:08:43;19.83;;;12.55;;
3278;SDS011;1651;50.940;6.888;2022-11-20T06:11:10;21.73;;;13.32;;
3278;SDS011;1651;50.940;6.888;2022-11-20T06:13:36;23.92;;;14.57;;
3278;SDS011;1651;50.940;6.888;2022-11-20T06:16:02;24.90;;;14.18;;
3278;SDS011;1651;50.940;6.888;2022-11-20T06:18:28;22.92;;;13.98;;
3278;SDS011;1651;50.940;6.888;2022-11-20T06:23:29;21.77;;;12.43;;
3278;SDS011;1651;50.940;6.888;2022-11-20T06:25:56;24.80;;;13.38;;
3278;SDS011;1651;50.940;6.888;2022-11-20T06:28:22;25.70;;;14.17;;
3278;SDS011;1651;50.940;6.888;2022-11-20T06:30:49;23.90;;;14.37;;
3278;SDS011;1651;50.940;6.888;2022-11-20T06:33:15;20.10;;;13.07;;
3278;SDS011;1651;50.940;6.888;2022-11-20T06:35:41;21.33;;;13.33;;
3278;SDS011;1651;50.940;6.888;2022-11-20T06:38:08;20.90;;;13.57;;
3278;SDS011;1651;50.940;6.888;2022-11-20T06:40:34;21.85;;;14.00;;
3278;SDS011;1651;50.940;6.888;2022-11-20T06:43:07;24.63;;;13.90;;
3278;SDS011;1651;50.940;6.888;2022-11-20T06:45:33;23.92;;;13.25;;
3278;SDS011;1651;50.940;6.888;2022-11-20T06:47:59;18.77;;;12.80;;
3278;SDS011;1651;50.940;6.888;2022-11-20T06:50:25;25.17;;;14.80;;
3278;SDS011;1651;50.940;6.888;2022-11-20T06:52:51;23.37;;;15.73;;
3278;SDS011;1651;50.940;6.888;2022-11-20T06:55:17;21.70;;;13.10;;
3278;SDS011;1651;50.940;6.888;2022-11-20T06:57:43;23.83;;;13.30;;
3278;SDS011;1651;50.940;6.888;2022-11-20T07:00:09;22.80;;;12.97;;
3278;SDS011;1651;50.940;6.888;2022-11-20T07:02:35;21.25;;;14.25;;
3278;SDS011;1651;50.940;6.888;2022-11-20T07:05:01;31.43;;;15.47;;
3278;SDS011;1651;50.940;6.888;2022-11-20T07:07:27;24.23;;;15.30;;
3278;SDS011;1651;50.940;6.888;2022-11-20T07:09:53;26.45;;;15.38;;
3278;SDS011;1651;50.940;6.888;2022-11-20T07:12:19;23.73;;;15.57;;
3278;SDS011;1651;50.940;6.888;2022-11-20T07:14:45;24.77;;;14.50;;
3278;SDS011;1651;50.940;6.888;2022-11-20T07:17:13;25.73;;;16.23;;
3278;SDS011;1651;50.940;6.888;2022-11-20T07:22:09;22.55;;;14.15;;
3278;SDS011;1651;50.940;6.888;2022-11-20T07:24:35;24.20;;;14.33;;
3278;SDS011;1651;50.940;6.888;2022-11-20T07:27:01;23.25;;;14.73;;
3278;SDS011;1651;50.940;6.888;2022-11-20T07:29:30;25.27;;;14.82;;
3278;SDS011;1651;50.940;6.888;2022-11-20T07:31:56;25.55;;;14.65;;
3278;SDS011;1651;50.940;6.888;2022-11-20T07:34:22;22.93;;;15.07;;
3278;SDS011;1651;50.940;6.888;2022-11-20T07:36:49;26.30;;;14.85;;
3278;SDS011;1651;50.940;6.888;2022-11-20T07:39:15;24.88;;;13.82;;
3278;SDS011;1651;50.940;6.888;2022-11-20T07:41:41;25.23;;;15.60;;
3278;SDS011;1651;50.940;6.888;2022-11-20T07:44:07;25.80;;;14.70;;
3278;SDS011;1651;50.940;6.888;2022-11-20T07:46:33;23.97;;;14.00;;
3278;SDS011;1651;50.940;6.888;2022-11-20T07:48:59;23.15;;;14.02;;
3278;SDS011;1651;50.940;6.888;2022-11-20T07:51:25;20.97;;;12.47;;
3278;SDS011;1651;50.940;6.888;2022-11-20T07:56:20;22.08;;;14.50;;
3278;SDS011;1651;50.940;6.888;2022-11-20T07:58:45;20.60;;;14.23;;
3278;SDS011;1651;50.940;6.888;2022-11-20T08:01:11;27.10;;;15.37;;
3278;SDS011;1651;50.940;6.888;2022-11-20T08:03:38;21.40;;;12.98;;
3278;SDS011;1651;50.940;6.888;2022-11-20T08:06:05;24.73;;;14.68;;
3278;SDS011;1651;50.940;6.888;2022-11-20T08:08:31;25.45;;;14.02;;
3278;SDS011;1651;50.940;6.888;2022-11-20T08:10:57;24.77;;;13.70;;
3278;SDS011;1651;50.940;6.888;2022-11-20T08:13:42;21.83;;;13.00;;
3278;SDS011;1651;50.940;6.888;2022-11-20T08:16:26;24.92;;;14.38;;
3278;SDS011;1651;50.940;6.888;2022-11-20T08:18:53;22.00;;;13.40;;
3278;SDS011;1651;50.940;6.888;2022-11-20T08:21:19;22.35;;;13.90;;
3278;SDS011;1651;50.940;6.888;2022-11-20T08:23:45;27.77;;;15.90;;
3278;SDS011;1651;50.940;6.888;2022-11-20T08:26:12;22.27;;;14.33;;
3278;SDS011;1651;50.940;6.888;2022-11-20T08:28:39;25.38;;;13.32;;
3278;SDS011;1651;50.940;6.888;2022-11-20T08:31:05;22.20;;;13.23;;
3278;SDS011;1651;50.940;6.888;2022-11-20T08:33:31;20.63;;;13.77;;
3278;SDS011;1651;50.940;6.888;2022-11-20T08:35:58;22.48;;;12.10;;
3278;SDS011;1651;50.940;6.888;2022-11-20T08:38:24;19.75;;;12.80;;
3278;SDS011;1651;50.940;6.888;2022-11-20T08:40:50;20.33;;;11.70;;
3278;SDS011;1651;50.940;6.888;2022-11-20T08:43:35;19.75;;;11.80;;
3278;SDS011;1651;50.940;6.888;2022-11-20T08:46:01;17.80;;;11.07;;
3278;SDS011;1651;50.940;6.888;2022-11-20T08:48:28;16.20;;;10.17;;
3278;SDS011;1651;50.940;6.888;2022-11-20T08:50:57;16.92;;;11.20;;
3278;SDS011;1651;50.940;6.888;2022-11-20T08:53:23;17.15;;;9.63;;
3278;SDS011;1651;50.940;6.888;2022-11-20T08:55:48;14.97;;;9.77;;
3278;SDS011;1651;50.940;6.888;2022-11-20T08:58:14;17.80;;;10.20;;
3278;SDS011;1651;50.940;6.888;2022-11-20T09:00:41;10.50;;;8.60;;
3278;SDS011;1651;50.940;6.888;2022-11-20T09:03:08;18.90;;;14.75;;
3278;SDS011;1651;50.940;6.888;2022-11-20T09:05:34;22.53;;;11.20;;
3278;SDS011;1651;50.940;6.888;2022-11-20T09:08:00;18.58;;;11.63;;
3278;SDS011;1651;50.940;6.888;2022-11-20T09:10:26;17.52;;;11.43;;
3278;SDS011;1651;50.940;6.888;2022-11-20T09:12:52;16.08;;;10.50;;
3278;SDS011;1651;50.940;6.888;2022-11-20T09:15:20;19.50;;;11.32;;
3278;SDS011;1651;50.940;6.888;2022-11-20T09:20:18;16.75;;;11.05;;
3278;SDS011;1651;50.940;6.888;2022-11-20T09:22:44;15.75;;;10.45;;
3278;SDS011;1651;50.940;6.888;2022-11-20T09:25:10;19.10;;;11.03;;
3278;SDS011;1651;50.940;6.888;2022-11-20T09:27:36;16.13;;;11.37;;
3278;SDS011;1651;50.940;6.888;2022-11-20T09:30:03;21.20;;;12.27;;
3278;SDS011;1651;50.940;6.888;2022-11-20T09:32:30;20.67;;;12.60;;
3278;SDS011;1651;50.940;6.888;2022-11-20T09:34:57;21.33;;;12.57;;
3278;SDS011;1651;50.940;6.888;2022-11-20T09:37:23;22.38;;;12.70;;
3278;SDS011;1651;50.940;6.888;2022-11-20T09:39:49;18.23;;;11.10;;
3278;SDS011;1651;50.940;6.888;2022-11-20T09:45:03;18.63;;;11.48;;
3278;SDS011;1651;50.940;6.888;2022-11-20T09:47:35;16.83;;;11.90;;
3278;SDS011;1651;50.940;6.888;2022-11-20T09:55:35;17.83;;;12.40;;
3278;SDS011;1651;50.940;6.888;2022-11-20T09:58:01;22.30;;;13.82;;
3278;SDS011;1651;50.940;6.888;2022-11-20T10:00:32;22.48;;;13.80;;
3278;SDS011;1651;50.940;6.888;2022-11-20T10:03:02;19.17;;;13.60;;
3278;SDS011;1651;50.940;6.888;2022-11-20T10:05:35;21.05;;;12.57;;
3278;SDS011;1651;50.940;6.888;2022-11-20T10:25:46;24.83;;;14.43;;
3278;SDS011;1651;50.940;6.888;2022-11-20T10:31:00;25.67;;;13.98;;
3278;SDS011;1651;50.940;6.888;2022-11-20T10:33:29;22.95;;;14.02;;
3278;SDS011;1651;50.940;6.888;2022-11-20T10:36:43;23.05;;;14.40;;
3278;SDS011;1651;50.940;6.888;2022-11-20T10:38:44;26.25;;;15.55;;
3278;SDS011;1651;50.940;6.888;2022-11-20T10:41:20;21.95;;;13.65;;
3278;SDS011;1651;50.940;6.888;2022-11-20T10:43:52;23.55;;;14.23;;
3278;SDS011;1651;50.940;6.888;2022-11-20T10:46:23;24.65;;;14.77;;
3278;SDS011;1651;50.940;6.888;2022-11-20T10:54:31;22.08;;;13.38;;
3278;SDS011;1651;50.940;6.888;2022-11-20T10:57:13;23.00;;;13.68;;
3278;SDS011;1651;50.940;6.888;2022-11-20T11:02:19;20.30;;;13.90;;
3278;SDS011;1651;50.940;6.888;2022-11-20T11:04:47;27.33;;;15.70;;
3278;SDS011;1651;50.940;6.888;2022-11-20T11:07:15;19.27;;;11.80;;
3278;SDS011;1651;50.940;6.888;2022-11-20T11:09:50;24.40;;;14.65;;
3278;SDS011;1651;50.940;6.888;2022-11-20T11:12:19;21.63;;;13.98;;
3278;SDS011;1651;50.940;6.888;2022-11-20T11:14:49;24.00;;;13.57;;
3278;SDS011;1651;50.940;6.888;2022-11-20T11:17:30;24.27;;;14.75;;
3278;SDS011;1651;50.940;6.888;2022-11-20T11:20:04;34.47;;;14.70;;
3278;SDS011;1651;50.940;6.888;2022-11-20T11:22:34;26.80;;;15.25;;
3278;SDS011;1651;50.940;6.888;2022-11-20T11:25:00;22.27;;;14.20;;
3278;SDS011;1651;50.940;6.888;2022-11-20T11:27:26;25.70;;;14.45;;
3278;SDS011;1651;50.940;6.888;2022-11-20T11:30:01;29.88;;;14.77;;
3278;SDS011;1651;50.940;6.888;2022-11-20T11:32:32;29.98;;;18.30;;
3278;SDS011;1651;50.940;6.888;2022-11-20T11:35:03;24.17;;;14.02;;
3278;SDS011;1651;50.940;6.888;2022-11-20T11:37:34;23.23;;;13.48;;
3278;SDS011;1651;50.940;6.888;2022-11-20T11:40:04;24.02;;;14.32;;
3278;SDS011;1651;50.940;6.888;2022-11-20T11:42:32;18.98;;;13.20;;
3278;SDS011;1651;50.940;6.888;2022-11-20T11:44:59;23.75;;;13.40;;
3278;SDS011;1651;50.940;6.888;2022-11-20T11:47:37;23.42;;;15.13;;
3278;SDS011;1651;50.940;6.888;2022-11-20T11:52:58;22.33;;;14.27;;
3278;SDS011;1651;50.940;6.888;2022-11-20T11:55:26;26.23;;;13.95;;
3278;SDS011;1651;50.940;6.888;2022-11-20T11:57:57;22.48;;;14.52;;
3278;SDS011;1651;50.940;6.888;2022-11-20T12:00:25;25.33;;;14.48;;
3278;SDS011;1651;50.940;6.888;2022-11-20T12:05:25;26.25;;;15.80;;
3278;SDS011;1651;50.940;6.888;2022-11-20T12:08:04;22.80;;;13.35;;
3278;SDS011;1651;50.940;6.888;2022-11-20T12:10:38;24.30;;;15.05;;
3278;SDS011;1651;50.940;6.888;2022-11-20T12:15:52;23.90;;;14.75;;
3278;SDS011;1651;50.940;6.888;2022-11-20T12:18:20;18.35;;;9.73;;
3278;SDS011;1651;50.940;6.888;2022-11-20T12:26:05;25.55;;;13.68;;
3278;SDS011;1651;50.940;6.888;2022-11-20T12:39:02;25.50;;;15.95;;
3278;SDS011;1651;50.940;6.888;2022-11-20T12:44:41;21.52;;;14.80;;
3278;SDS011;1651;50.940;6.888;2022-11-20T13:06:52;14.20;;;8.85;;
3278;SDS011;1651;50.940;6.888;2022-11-20T13:09:19;26.70;;;14.65;;
3278;SDS011;1651;50.940;6.888;2022-11-20T13:12:03;23.02;;;13.98;;
3278;SDS011;1651;50.940;6.888;2022-11-20T13:14:38;26.73;;;13.70;;
3278;SDS011;1651;50.940;6.888;2022-11-20T13:19:32;24.97;;;15.03;;
3278;SDS011;1651;50.940;6.888;2022-11-20T13:21:58;20.38;;;12.70;;
3278;SDS011;1651;50.940;6.888;2022-11-20T13:24:25;22.80;;;11.47;;
3278;SDS011;1651;50.940;6.888;2022-11-20T13:29:37;23.80;;;13.70;;
3278;SDS011;1651;50.940;6.888;2022-11-20T13:32:18;16.60;;;10.02;;
3278;SDS011;1651;50.940;6.888;2022-11-20T13:34:53;21.50;;;12.75;;
3278;SDS011;1651;50.940;6.888;2022-11-20T13:37:33;24.75;;;14.77;;
3278;SDS011;1651;50.940;6.888;2022-11-20T13:42:31;15.82;;;9.30;;
3278;SDS011;1651;50.940;6.888;2022-11-20T13:45:08;19.65;;;13.15;;
3278;SDS011;1651;50.940;6.888;2022-11-20T13:47:37;21.17;;;12.93;;
3278;SDS011;1651;50.940;6.888;2022-11-20T13:50:08;21.08;;;12.32;;
3278;SDS011;1651;50.940;6.888;2022-11-20T14:00:33;21.38;;;12.80;;
3278;SDS011;1651;50.940;6.888;2022-11-20T14:05:34;22.33;;;14.25;;
3278;SDS011;1651;50.940;6.888;2022-11-20T14:08:00;23.58;;;14.40;;
3278;SDS011;1651;50.940;6.888;2022-11-20T14:10:29;16.67;;;9.70;;
3278;SDS011;1651;50.940;6.888;2022-11-20T14:12:55;15.25;;;8.43;;
3278;SDS011;1651;50.940;6.888;2022-11-20T14:15:32;24.75;;;12.70;;
3278;SDS011;1651;50.940;6.888;2022-11-20T14:18:00;14.02;;;6.90;;
3278;SDS011;1651;50.940;6.888;2022-11-20T14:20:36;20.50;;;11.85;;
3278;SDS011;1651;50.940;6.888;2022-11-20T14:23:03;23.95;;;15.50;;
3278;SDS011;1651;50.940;6.888;2022-11-20T14:25:30;18.25;;;11.90;;
3278;SDS011;1651;50.940;6.888;2022-11-20T14:28:00;20.55;;;14.27;;
3278;SDS011;1651;50.940;6.888;2022-11-20T14:30:42;22.60;;;14.10;;
3278;SDS011;1651;50.940;6.888;2022-11-20T14:33:09;21.33;;;13.10;;
3278;SDS011;1651;50.940;6.888;2022-11-20T14:35:37;24.80;;;13.93;;
3278;SDS011;1651;50.940;6.888;2022-11-20T14:38:08;20.67;;;12.85;;
3278;SDS011;1651;50.940;6.888;2022-11-20T14:40:36;23.27;;;13.07;;
3278;SDS011;1651;50.940;6.888;2022-11-20T14:43:14;26.05;;;15.63;;
3278;SDS011;1651;50.940;6.888;2022-11-20T14:45:42;19.60;;;14.20;;
3278;SDS011;1651;50.940;6.888;2022-11-20T14:48:08;22.52;;;11.57;;
3278;SDS011;1651;50.940;6.888;2022-11-20T14:50:40;23.20;;;14.55;;
3278;SDS011;1651;50.940;6.888;2022-11-20T14:53:06;23.85;;;12.55;;
3278;SDS011;1651;50.940;6.888;2022-11-20T14:55:35;22.67;;;14.70;;
3278;SDS011;1651;50.940;6.888;2022-11-20T14:58:24;22.92;;;11.13;;
3278;SDS011;1651;50.940;6.888;2022-11-20T15:00:58;25.40;;;15.32;;
3278;SDS011;1651;50.940;6.888;2022-11-20T15:03:31;23.30;;;13.73;;
3278;SDS011;1651;50.940;6.888;2022-11-20T15:05:58;22.60;;;13.23;;
3278;SDS011;1651;50.940;6.888;2022-11-20T15:08:32;25.70;;;14.20;;
3278;SDS011;1651;50.940;6.888;2022-11-20T15:10:59;23.23;;;13.85;;
3278;SDS011;1651;50.940;6.888;2022-11-20T15:16:00;24.13;;;14.40;;
3278;SDS011;1651;50.940;6.888;2022-11-20T15:18:32;24.42;;;14.13;;
3278;SDS011;1651;50.940;6.888;2022-11-20T15:21:02;21.50;;;14.57;;
3278;SDS011;1651;50.940;6.888;2022-11-20T15:23:41;23.77;;;15.05;;
3278;SDS011;1651;50.940;6.888;2022-11-20T15:26:07;29.00;;;16.60;;
3278;SDS011;1651;50.940;6.888;2022-11-20T15:28:35;25.27;;;15.43;;
3278;SDS011;1651;50.940;6.888;2022-11-20T15:31:02;28.00;;;14.95;;
3278;SDS011;1651;50.940;6.888;2022-11-20T15:33:28;23.08;;;13.95;;
3278;SDS011;1651;50.940;6.888;2022-11-20T15:35:55;29.08;;;14.15;;
3278;SDS011;1651;50.940;6.888;2022-11-20T15:38:21;22.15;;;13.27;;
3278;SDS011;1651;50.940;6.888;2022-11-20T15:40:47;25.70;;;15.10;;
3278;SDS011;1651;50.940;6.888;2022-11-20T15:43:13;28.03;;;15.00;;
3278;SDS011;1651;50.940;6.888;2022-11-20T15:45:44;22.83;;;14.88;;
3278;SDS011;1651;50.940;6.888;2022-11-20T15:48:21;27.77;;;15.95;;
3278;SDS011;1651;50.940;6.888;2022-11-20T15:53:25;20.85;;;12.52;;
3278;SDS011;1651;50.940;6.888;2022-11-20T15:55:51;27.33;;;18.02;;
3278;SDS011;1651;50.940;6.888;2022-11-20T15:58:17;23.13;;;15.15;;
3278;SDS011;1651;50.940;6.888;2022-11-20T16:00:43;25.30;;;14.82;;
3278;SDS011;1651;50.940;6.888;2022-11-20T16:03:10;20.90;;;14.02;;
3278;SDS011;1651;50.940;6.888;2022-11-20T16:05:37;21.13;;;13.45;;
3278;SDS011;1651;50.940;6.888;2022-11-20T16:08:14;21.75;;;13.85;;
3278;SDS011;1651;50.940;6.888;2022-11-20T16:10:40;21.92;;;13.18;;
3278;SDS011;1651;50.940;6.888;2022-11-20T16:13:17;20.20;;;11.57;;
3278;SDS011;1651;50.940;6.888;2022-11-20T16:16:07;21.77;;;11.73;;
3278;SDS011;1651;50.940;6.888;2022-11-20T16:18:35;21.90;;;12.93;;
3278;SDS011;1651;50.940;6.888;2022-11-20T16:21:01;20.60;;;11.90;;
3278;SDS011;1651;50.940;6.888;2022-11-20T16:23:27;18.52;;;11.85;;
3278;SDS011;1651;50.940;6.888;2022-11-20T16:28:29;19.08;;;11.95;;
3278;SDS011;1651;50.940;6.888;2022-11-20T16:30:55;19.03;;;12.73;;
3278;SDS011;1651;50.940;6.888;2022-11-20T16:33:21;21.37;;;12.03;;
3278;SDS011;1651;50.940;6.888;2022-11-20T16:35:47;18.87;;;11.23;;
3278;SDS011;1651;50.940;6.888;2022-11-20T16:38:14;19.00;;;11.20;;
3278;SDS011;1651;50.940;6.888;2022-11-20T16:40:40;11.70;;;8.13;;
3278;SDS011;1651;50.940;6.888;2022-11-20T16:43:08;14.45;;;10.25;;
3278;SDS011;1651;50.940;6.888;2022-11-20T16:45:39;16.55;;;8.95;;
3278;SDS011;1651;50.940;6.888;2022-11-20T16:48:05;14.13;;;8.23;;
3278;SDS011;1651;50.940;6.888;2022-11-20T16:50:31;8.10;;;5.50;;
3278;SDS011;1651;50.940;6.888;2022-11-20T16:53:00;9.23;;;6.33;;
3278;SDS011;1651;50.940;6.888;2022-11-20T16:55:26;11.57;;;6.78;;
3278;SDS011;1651;50.940;6.888;2022-11-20T16:57:52;9.30;;;6.40;;
3278;SDS011;1651;50.940;6.888;2022-11-20T17:00:18;8.57;;;6.13;;
3278;SDS011;1651;50.940;6.888;2022-11-20T17:02:44;8.63;;;5.37;;